หน้าหลัก
METAR-TAF:

METAR-TAF

ท่าอากาศยาน :

Grants-Milan Municipal Airport

Grants, นิวเม็กซิโก, สหรัฐอเมริกา

ละติจูด: 35-09-55N, ลองจิจูด: 107-54-08W, ความสูง: 1988 ม.

การสังเกตสภาพอากาศปัจจุบัน

รายงานได้ทำขึ้นเมื่อ 29 นาทีที่แล้ว ณ เวลา 13:55 UTC
ลม 3 นอตจากเหนือ/ตะวันตกเฉียงเหนือ
อุณหภูมิ 15°C
ความชื้น 44%
ความกดอากาศ 1026 hPa
ทัศนวิสัย: 16.1 กม.
ท้องฟ้าแจ่มใส

METAR: KGNT 121355Z AUTO 33003KT 10SM CLR 15/03 A3031 RMK AO2 T01490030

เวลา: 08:24 (14:24 UTC)


TAF: หายไป

สังเกตการณ์สภาพอากาศและพยากรณ์อากาศของสนามบินมากกว่า 4000 แห่ง (รายงาน METAR และ TAF).

สถานีที่ดูได้จะแสดงไว้ด้วยจุดสีเหลืองและสีแดงบนแผนที่.

เลื่อนเมาส์ไปเหนือจุดเพื่อดูชื่อสถานี.

แล้วคลิกเพื่อดูสังเกตการณ์และการพยากรณ์สภาพอากาศ.

ในการเปลี่ยนแผนที่: คลิกที่ปุ่มสีเขียวที่มีกากบาทสีดำเพื่อซูมเข้า; ที่ปุ่มสีเขียวที่มีขีดเพื่อซูมออก; หรือที่ลูกศรสีเขียวเพื่อไปยังแผนที่ที่อยู่ติดกัน.


METAR-TAF: